createdAt,value
2023-03-18T00:00:31.036Z,7.40
2023-03-18T00:02:59.036Z,5.10
2023-03-18T00:05:26.257Z,6.53
2023-03-18T00:07:53.775Z,5.83
2023-03-18T00:10:20.999Z,12.53
2023-03-18T00:12:48.243Z,4.60
2023-03-18T00:15:20.086Z,5.63
2023-03-18T00:17:48.614Z,7.27
2023-03-18T00:20:18.245Z,6.40
2023-03-18T00:22:46.806Z,5.77
2023-03-18T00:25:15.489Z,7.07
2023-03-18T00:27:42.767Z,6.73
2023-03-18T00:30:10.477Z,5.40
2023-03-18T00:32:38.829Z,5.13
2023-03-18T00:35:06.227Z,3.30
2023-03-18T00:37:35.688Z,5.67
2023-03-18T00:40:06.768Z,9.43
2023-03-18T00:42:47.457Z,5.17
2023-03-18T00:45:16.163Z,7.63
2023-03-18T00:47:43.718Z,7.03
2023-03-18T00:50:11.350Z,7.07
2023-03-18T00:52:39.663Z,10.70
2023-03-18T00:55:07.222Z,11.40
2023-03-18T00:57:34.556Z,7.33
2023-03-18T01:00:01.763Z,7.00
2023-03-18T01:02:29.752Z,7.23
2023-03-18T01:04:58.080Z,4.80
2023-03-18T01:07:25.673Z,8.07
2023-03-18T01:09:52.942Z,11.27
2023-03-18T01:12:20.118Z,5.63
2023-03-18T01:14:48.294Z,6.90
2023-03-18T01:17:15.591Z,5.60
2023-03-18T01:19:43.524Z,7.07
2023-03-18T01:22:10.721Z,6.83
2023-03-18T01:24:37.920Z,4.73
2023-03-18T01:27:06.369Z,8.07
2023-03-18T01:29:33.719Z,7.07
2023-03-18T01:32:01.783Z,5.73
2023-03-18T01:34:29.019Z,6.67
2023-03-18T01:36:57.643Z,7.07
2023-03-18T01:39:25.092Z,11.60
2023-03-18T01:41:52.303Z,7.20
2023-03-18T01:44:20.835Z,5.43
2023-03-18T01:46:49.520Z,9.07
2023-03-18T01:49:19.044Z,7.17
2023-03-18T01:51:48.852Z,5.37
2023-03-18T01:54:16.512Z,8.47
2023-03-18T01:56:44.955Z,5.70
2023-03-18T01:59:13.775Z,9.73
2023-03-18T02:01:43.902Z,6.97
2023-03-18T02:04:11.253Z,5.63
2023-03-18T02:06:39.500Z,6.07
2023-03-18T02:09:07.485Z,8.47
2023-03-18T02:11:38.187Z,8.63
2023-03-18T02:14:05.802Z,7.40
2023-03-18T02:16:35.969Z,11.23
2023-03-18T02:19:09.518Z,8.77
2023-03-18T02:21:47.596Z,7.03
2023-03-18T02:24:20.638Z,9.90
2023-03-18T02:26:54.117Z,8.13
2023-03-18T02:29:22.262Z,8.53
2023-03-18T02:31:50.286Z,9.73
2023-03-18T02:34:18.392Z,7.23
2023-03-18T02:36:45.928Z,9.23
2023-03-18T02:39:14.241Z,9.20
2023-03-18T02:41:41.665Z,9.00
2023-03-18T02:44:08.902Z,7.27
2023-03-18T02:46:49.201Z,8.50
2023-03-18T02:49:18.331Z,9.03
2023-03-18T02:51:46.547Z,10.73
2023-03-18T02:54:15.431Z,11.03
2023-03-18T02:56:44.009Z,5.87
2023-03-18T02:59:11.988Z,7.30
2023-03-18T03:01:40.272Z,8.03
2023-03-18T03:04:08.025Z,8.33
2023-03-18T03:06:36.053Z,8.57
2023-03-18T03:09:04.919Z,10.53
2023-03-18T03:11:32.183Z,11.63
2023-03-18T03:13:59.692Z,17.30
2023-03-18T03:16:26.872Z,8.83
2023-03-18T03:18:54.038Z,8.00
2023-03-18T03:21:21.289Z,8.97
2023-03-18T03:23:48.590Z,8.40
2023-03-18T03:26:16.564Z,10.47
2023-03-18T03:28:44.192Z,9.63
2023-03-18T03:31:11.361Z,6.53
2023-03-18T03:33:41.729Z,11.50
2023-03-18T03:36:10.129Z,7.33
2023-03-18T03:38:37.305Z,7.37
2023-03-18T03:41:05.384Z,7.17
2023-03-18T03:43:33.982Z,9.20
2023-03-18T03:46:01.156Z,10.43
2023-03-18T03:48:28.490Z,7.37
2023-03-18T03:50:56.693Z,8.07
2023-03-18T03:53:25.053Z,10.87
2023-03-18T03:55:52.496Z,9.90
2023-03-18T03:58:20.058Z,7.80
2023-03-18T04:00:47.459Z,9.87
2023-03-18T04:03:14.778Z,7.67
2023-03-18T04:05:43.229Z,7.67
2023-03-18T04:08:10.644Z,9.10
2023-03-18T04:10:38.416Z,7.60
2023-03-18T04:13:06.056Z,9.23
2023-03-18T04:15:33.307Z,11.50
2023-03-18T04:18:04.960Z,8.93
2023-03-18T04:20:32.492Z,9.13
2023-03-18T04:22:59.859Z,8.80
2023-03-18T04:25:27.191Z,11.43
2023-03-18T04:27:54.534Z,12.10
2023-03-18T04:30:23.371Z,8.83
2023-03-18T04:32:51.926Z,12.47
2023-03-18T04:35:19.793Z,10.37
2023-03-18T04:37:47.544Z,9.27
2023-03-18T04:40:14.779Z,11.37
2023-03-18T04:42:42.828Z,7.73
2023-03-18T04:45:10.299Z,9.87
2023-03-18T04:47:38.315Z,9.17
2023-03-18T04:50:05.836Z,9.57
2023-03-18T04:52:33.711Z,10.37
2023-03-18T04:55:01.756Z,8.87
2023-03-18T04:57:29.236Z,9.23
2023-03-18T04:59:56.679Z,9.07
2023-03-18T05:02:24.673Z,8.33
2023-03-18T05:04:51.863Z,8.70
2023-03-18T05:07:20.360Z,9.53
2023-03-18T05:09:47.648Z,8.77
2023-03-18T05:12:15.025Z,9.23
2023-03-18T05:14:46.085Z,10.47
2023-03-18T05:17:17.229Z,12.03
2023-03-18T05:19:46.525Z,8.97
2023-03-18T05:22:15.301Z,11.63
2023-03-18T05:24:43.274Z,10.67
2023-03-18T05:27:11.122Z,10.53
2023-03-18T05:29:40.246Z,9.40
2023-03-18T05:32:08.077Z,9.03
2023-03-18T05:34:37.542Z,8.13
2023-03-18T05:37:05.087Z,7.97
2023-03-18T05:39:33.179Z,12.70
2023-03-18T05:42:01.084Z,10.67
2023-03-18T05:44:29.445Z,8.50
2023-03-18T05:46:56.932Z,8.47
2023-03-18T05:49:24.499Z,11.37
2023-03-18T05:51:54.706Z,8.40
2023-03-18T05:54:22.102Z,9.23
2023-03-18T05:56:49.923Z,10.73
2023-03-18T05:59:17.313Z,11.77
2023-03-18T06:01:44.679Z,15.03
2023-03-18T06:04:12.003Z,10.23
2023-03-18T06:06:40.736Z,10.70
2023-03-18T06:09:12.111Z,11.13
2023-03-18T06:11:40.211Z,7.27
2023-03-18T06:14:08.317Z,10.93
2023-03-18T06:16:36.179Z,14.47
2023-03-18T06:19:04.030Z,11.40
2023-03-18T06:21:33.098Z,9.90
2023-03-18T06:24:02.631Z,9.60
2023-03-18T06:26:30.084Z,7.33
2023-03-18T06:28:58.463Z,11.60
2023-03-18T06:31:26.229Z,6.80
2023-03-18T06:33:53.454Z,9.03
2023-03-18T06:36:21.080Z,11.80
2023-03-18T06:38:48.347Z,9.40
2023-03-18T06:41:16.292Z,9.07
2023-03-18T06:43:43.839Z,7.93
2023-03-18T06:46:14.505Z,9.97
2023-03-18T06:48:42.099Z,11.53
2023-03-18T06:51:09.281Z,8.73
2023-03-18T06:53:37.040Z,10.23
2023-03-18T06:56:06.065Z,8.30
2023-03-18T06:58:33.546Z,9.57
2023-03-18T07:01:01.468Z,10.87
2023-03-18T07:03:28.733Z,12.23
2023-03-18T07:05:56.169Z,9.00
2023-03-18T07:08:23.458Z,10.00
2023-03-18T07:10:52.942Z,12.53
2023-03-18T07:13:20.313Z,7.03
2023-03-18T07:15:47.577Z,10.00
2023-03-18T07:18:15.496Z,12.27
2023-03-18T07:20:43.319Z,10.70
2023-03-18T07:23:11.092Z,8.17
2023-03-18T07:25:38.291Z,7.20
2023-03-18T07:28:05.836Z,10.67
2023-03-18T07:30:34.054Z,7.73
2023-03-18T07:33:01.419Z,9.43
2023-03-18T07:35:28.871Z,10.33
2023-03-18T07:37:56.800Z,9.93
2023-03-18T07:40:24.533Z,12.23
2023-03-18T07:42:51.940Z,9.23
2023-03-18T07:45:19.181Z,7.40
2023-03-18T07:47:47.378Z,10.63
2023-03-18T07:50:14.733Z,10.43
2023-03-18T07:52:42.058Z,12.67
2023-03-18T07:55:09.411Z,7.10
2023-03-18T07:57:36.750Z,7.10
2023-03-18T08:00:05.200Z,9.53
2023-03-18T08:02:32.734Z,8.73
2023-03-18T08:04:59.920Z,7.77
2023-03-18T08:07:27.170Z,10.57
2023-03-18T08:09:54.400Z,7.63
2023-03-18T08:12:21.640Z,8.80
2023-03-18T08:14:49.787Z,9.60
2023-03-18T08:17:17.147Z,9.13
2023-03-18T08:19:44.410Z,9.43
2023-03-18T08:22:11.592Z,6.00
2023-03-18T08:24:38.819Z,9.33
2023-03-18T08:27:06.428Z,8.03
2023-03-18T08:29:33.827Z,8.57
2023-03-18T08:32:01.318Z,10.20
2023-03-18T08:34:28.544Z,10.20
2023-03-18T08:36:55.709Z,7.87
2023-03-18T08:39:22.878Z,9.50
2023-03-18T08:41:50.086Z,8.90
2023-03-18T08:44:17.959Z,9.67
2023-03-18T08:46:45.300Z,7.57
2023-03-18T08:49:14.014Z,8.67
2023-03-18T08:51:41.309Z,8.80
2023-03-18T08:54:08.692Z,7.73
2023-03-18T08:56:35.935Z,8.33
2023-03-18T08:59:03.223Z,7.43
2023-03-18T09:01:30.563Z,6.53
2023-03-18T09:03:59.146Z,7.03
2023-03-18T09:06:27.756Z,6.87
2023-03-18T09:08:55.084Z,7.27
2023-03-18T09:11:22.478Z,8.47
2023-03-18T09:13:49.696Z,6.20
2023-03-18T09:16:18.361Z,7.00
2023-03-18T09:18:48.317Z,5.97
2023-03-18T09:21:16.000Z,5.57
2023-03-18T09:23:43.254Z,6.13
2023-03-18T09:26:11.503Z,6.67
2023-03-18T09:28:38.744Z,5.93
2023-03-18T09:31:06.262Z,5.50
2023-03-18T09:33:37.043Z,6.07
2023-03-18T09:36:04.687Z,4.63
2023-03-18T09:38:32.472Z,4.50
2023-03-18T09:41:11.850Z,4.67
2023-03-18T09:43:52.341Z,5.60
2023-03-18T09:46:28.867Z,4.93
2023-03-18T09:49:22.645Z,5.63
2023-03-18T09:51:58.823Z,6.18
2023-03-18T09:54:43.352Z,6.43
2023-03-18T09:57:14.172Z,4.22
2023-03-18T09:59:45.337Z,7.05
2023-03-18T10:02:19.262Z,5.53
2023-03-18T10:05:04.939Z,4.45
2023-03-18T10:07:34.344Z,3.92
2023-03-18T10:10:13.937Z,5.10
2023-03-18T10:12:45.576Z,2.65
2023-03-18T10:15:29.595Z,3.53
2023-03-18T10:18:11.405Z,3.50
2023-03-18T10:20:46.642Z,2.30
2023-03-18T10:23:14.705Z,3.70
2023-03-18T10:25:48.585Z,3.80
2023-03-18T10:28:22.698Z,4.97
2023-03-18T10:30:58.016Z,3.35
2023-03-18T10:33:37.611Z,3.30
2023-03-18T10:36:19.914Z,4.93
2023-03-18T10:38:51.776Z,3.08
2023-03-18T10:41:26.438Z,4.15
2023-03-18T10:43:55.796Z,3.30
2023-03-18T10:46:24.844Z,4.25
2023-03-18T10:49:06.597Z,2.58
2023-03-18T10:51:50.154Z,2.17
2023-03-18T10:54:23.423Z,2.60
2023-03-18T10:56:52.655Z,4.38
2023-03-18T10:59:22.699Z,3.40
2023-03-18T11:01:56.056Z,3.30
2023-03-18T11:04:23.715Z,2.55
2023-03-18T11:06:58.873Z,1.55
2023-03-18T11:09:37.065Z,2.83
2023-03-18T11:12:07.286Z,2.15
2023-03-18T11:14:37.614Z,2.00
2023-03-18T11:17:18.227Z,2.67
2023-03-18T11:19:50.509Z,2.00
2023-03-18T11:22:25.461Z,2.38
2023-03-18T11:25:14.971Z,4.75
2023-03-18T11:27:45.914Z,2.33
2023-03-18T11:30:16.672Z,3.63
2023-03-18T11:32:59.078Z,4.65
2023-03-18T11:35:52.793Z,2.42
2023-03-18T11:38:31.113Z,2.28
2023-03-18T11:41:22.029Z,5.40
2023-03-18T11:44:03.810Z,5.55
2023-03-18T11:46:32.614Z,2.47
2023-03-18T11:48:59.796Z,1.70
2023-03-18T11:51:42.920Z,2.22
2023-03-18T11:54:38.370Z,2.92
2023-03-18T11:57:32.933Z,4.00
2023-03-18T12:00:18.289Z,2.10
2023-03-18T12:03:23.380Z,3.13
2023-03-18T12:06:20.717Z,4.15
2023-03-18T12:08:51.255Z,3.22
2023-03-18T12:11:39.694Z,5.10
2023-03-18T12:14:22.689Z,3.22
2023-03-18T12:17:22.016Z,2.50
2023-03-18T12:19:57.817Z,5.07
2023-03-18T12:22:35.720Z,5.32
2023-03-18T12:25:31.456Z,2.35
2023-03-18T12:27:58.662Z,3.15
2023-03-18T12:30:44.429Z,8.98
2023-03-18T12:33:36.857Z,4.90
2023-03-18T12:36:28.347Z,3.35
2023-03-18T12:39:22.877Z,4.57
2023-03-18T12:42:13.551Z,2.63
2023-03-18T12:44:43.449Z,2.80
2023-03-18T12:47:38.927Z,2.25
2023-03-18T12:50:28.303Z,3.28
2023-03-18T12:53:00.961Z,2.25
2023-03-18T12:55:36.636Z,2.22
2023-03-18T12:58:23.678Z,2.60
2023-03-18T13:00:57.148Z,3.55
2023-03-18T13:03:38.799Z,5.60
2023-03-18T13:06:14.219Z,2.42
2023-03-18T13:09:05.003Z,1.73
2023-03-18T13:11:40.773Z,2.35
2023-03-18T13:14:21.838Z,3.33
2023-03-18T13:16:50.495Z,2.42
2023-03-18T13:19:18.492Z,2.78
2023-03-18T13:21:56.691Z,2.75
2023-03-18T13:24:45.146Z,3.63
2023-03-18T13:27:33.950Z,4.10
2023-03-18T13:30:33.364Z,3.58
2023-03-18T13:33:17.804Z,3.15
2023-03-18T13:35:44.897Z,3.65
2023-03-18T13:38:24.031Z,4.80
2023-03-18T13:40:57.239Z,3.78
2023-03-18T13:43:25.734Z,3.63
2023-03-18T13:45:55.051Z,8.88
2023-03-18T13:48:32.032Z,9.15
2023-03-18T13:50:59.294Z,3.60
2023-03-18T13:53:30.961Z,3.88
2023-03-18T13:55:57.815Z,3.20
2023-03-18T13:58:45.491Z,5.20
2023-03-18T14:01:18.341Z,3.15
2023-03-18T14:03:45.195Z,3.40
2023-03-18T14:06:24.661Z,4.07
2023-03-18T14:08:53.194Z,3.40
2023-03-18T14:11:20.363Z,4.85
2023-03-18T14:13:57.315Z,4.40
2023-03-18T14:16:38.002Z,4.85
2023-03-18T14:19:24.197Z,5.35
2023-03-18T14:22:05.601Z,4.40
2023-03-18T14:24:32.830Z,3.60
2023-03-18T14:27:04.370Z,4.65
2023-03-18T14:29:37.398Z,6.88
2023-03-18T14:32:27.905Z,5.18
2023-03-18T14:34:59.567Z,5.63
2023-03-18T14:37:29.141Z,7.32
2023-03-18T14:40:16.476Z,5.30
2023-03-18T14:42:49.927Z,6.20
2023-03-18T14:45:24.449Z,4.55
2023-03-18T14:47:56.110Z,7.05
2023-03-18T14:50:32.819Z,7.45
2023-03-18T14:53:10.196Z,5.25
2023-03-18T14:55:38.426Z,12.88
2023-03-18T14:58:06.033Z,5.47
2023-03-18T15:00:35.492Z,5.07
2023-03-18T15:03:10.145Z,4.78
2023-03-18T15:05:39.159Z,5.05
2023-03-18T15:08:17.883Z,3.28
2023-03-18T15:10:51.677Z,5.07
2023-03-18T15:13:22.850Z,3.05
2023-03-18T15:15:54.829Z,5.55
2023-03-18T15:18:28.978Z,4.15
2023-03-18T15:20:59.743Z,17.48
2023-03-18T15:23:37.785Z,11.63
2023-03-18T15:26:09.741Z,7.25
2023-03-18T15:28:37.370Z,5.05
2023-03-18T15:31:05.821Z,4.28
2023-03-18T15:33:37.086Z,7.05
2023-03-18T15:36:08.469Z,4.07
2023-03-18T15:38:35.764Z,5.30
2023-03-18T15:41:04.451Z,5.63
2023-03-18T15:43:32.613Z,3.80
2023-03-18T15:46:01.618Z,4.13
2023-03-18T15:48:35.162Z,5.85
2023-03-18T15:51:06.065Z,5.13
2023-03-18T15:53:42.554Z,4.25
2023-03-18T15:56:18.137Z,5.88
2023-03-18T15:58:45.406Z,7.00
2023-03-18T16:01:18.208Z,8.95
2023-03-18T16:03:46.679Z,4.65
2023-03-18T16:06:16.255Z,5.95
2023-03-18T16:08:43.604Z,5.70
2023-03-18T16:11:11.832Z,3.90
2023-03-18T16:13:39.875Z,3.60
2023-03-18T16:16:07.307Z,6.45
2023-03-18T16:18:34.979Z,7.80
2023-03-18T16:21:02.640Z,4.05
2023-03-18T16:23:30.491Z,5.05
2023-03-18T16:25:59.081Z,5.35
2023-03-18T16:28:28.091Z,4.28
2023-03-18T16:30:56.369Z,2.75
2023-03-18T16:33:24.200Z,3.75
2023-03-18T16:35:58.636Z,7.28
2023-03-18T16:38:26.494Z,4.82
2023-03-18T16:40:54.946Z,7.30
2023-03-18T16:43:28.028Z,3.42
2023-03-18T16:46:00.568Z,4.38
2023-03-18T16:48:28.527Z,3.13
2023-03-18T16:51:00.340Z,3.80
2023-03-18T16:53:33.266Z,6.90
2023-03-18T16:56:21.913Z,10.48
2023-03-18T16:58:49.490Z,6.85
2023-03-18T17:01:19.360Z,6.05
2023-03-18T17:03:48.034Z,4.70
2023-03-18T17:06:15.838Z,3.55
2023-03-18T17:08:44.920Z,10.80
2023-03-18T17:11:18.125Z,4.65
2023-03-18T17:13:46.225Z,3.50
2023-03-18T17:16:20.141Z,8.63
2023-03-18T17:18:48.166Z,4.28
2023-03-18T17:21:17.110Z,5.63
2023-03-18T17:23:46.003Z,10.70
2023-03-18T17:26:16.681Z,8.93
2023-03-18T17:28:47.662Z,7.22
2023-03-18T17:31:15.224Z,6.15
2023-03-18T17:33:42.480Z,6.40
2023-03-18T17:36:10.085Z,7.53
2023-03-18T17:38:37.343Z,16.63
2023-03-18T17:41:06.611Z,7.25
2023-03-18T17:43:34.722Z,5.68
2023-03-18T17:46:03.105Z,10.20
2023-03-18T17:48:31.627Z,8.88
2023-03-18T17:51:03.499Z,7.85
2023-03-18T17:53:37.153Z,7.95
2023-03-18T17:56:05.003Z,8.80
2023-03-18T17:58:33.212Z,8.98
2023-03-18T18:01:03.723Z,7.65
2023-03-18T18:03:31.995Z,7.03
2023-03-18T18:06:00.420Z,7.22
2023-03-18T18:08:28.337Z,7.57
2023-03-18T18:10:59.182Z,9.38
2023-03-18T18:13:26.420Z,7.25
2023-03-18T18:15:53.608Z,8.23
2023-03-18T18:18:25.710Z,8.23
2023-03-18T18:21:00.176Z,8.38
2023-03-18T18:23:34.696Z,8.27
2023-03-18T18:26:07.371Z,9.25
2023-03-18T18:28:35.903Z,9.30
2023-03-18T18:31:04.102Z,8.27
2023-03-18T18:33:31.743Z,12.02
2023-03-18T18:35:59.130Z,11.27
2023-03-18T18:38:26.406Z,16.67
2023-03-18T18:40:54.334Z,10.80
2023-03-18T18:43:22.334Z,9.13
2023-03-18T18:45:49.906Z,7.70
2023-03-18T18:48:18.320Z,10.80
2023-03-18T18:50:47.848Z,12.13
2023-03-18T18:53:15.102Z,9.68
2023-03-18T18:55:42.324Z,9.33
2023-03-18T18:58:19.485Z,7.83
2023-03-18T19:00:49.522Z,7.57
2023-03-18T19:03:18.064Z,8.83
2023-03-18T19:05:46.140Z,9.63
2023-03-18T19:08:25.031Z,7.13
2023-03-18T19:10:56.623Z,9.53
2023-03-18T19:13:24.713Z,8.03
2023-03-18T19:15:56.081Z,8.83
2023-03-18T19:18:24.807Z,6.50
2023-03-18T19:20:53.121Z,6.33
2023-03-18T19:23:25.945Z,6.33
2023-03-18T19:25:53.879Z,7.20
2023-03-18T19:28:47.806Z,5.50
2023-03-18T19:31:23.243Z,7.33
2023-03-18T19:33:51.704Z,7.70
2023-03-18T19:36:28.060Z,8.70
2023-03-18T19:38:56.087Z,13.83
2023-03-18T19:41:23.280Z,7.30
2023-03-18T19:43:50.816Z,7.60
2023-03-18T19:46:23.871Z,6.63
2023-03-18T19:48:51.480Z,6.83
2023-03-18T19:51:18.737Z,7.53
2023-03-18T19:53:47.025Z,6.90
2023-03-18T19:56:27.449Z,6.03
2023-03-18T19:58:55.342Z,7.40
2023-03-18T20:01:22.680Z,5.90
2023-03-18T20:03:50.861Z,6.03
2023-03-18T20:06:18.091Z,8.17
2023-03-18T20:08:45.462Z,8.30
2023-03-18T20:11:13.879Z,15.43
2023-03-18T20:13:42.360Z,7.97
2023-03-18T20:16:16.505Z,7.13
2023-03-18T20:18:44.167Z,7.30
2023-03-18T20:21:29.568Z,5.97
2023-03-18T20:24:00.565Z,6.90
2023-03-18T20:26:27.757Z,7.63
2023-03-18T20:28:56.195Z,6.90
2023-03-18T20:31:23.525Z,6.13
2023-03-18T20:33:50.932Z,6.73
2023-03-18T20:36:18.816Z,8.83
2023-03-18T20:38:48.202Z,8.10
2023-03-18T20:41:19.639Z,7.47
2023-03-18T20:43:50.090Z,10.83
2023-03-18T20:46:17.379Z,7.63
2023-03-18T20:48:45.070Z,9.00
2023-03-18T20:51:21.051Z,6.43
2023-03-18T20:53:48.421Z,7.67
2023-03-18T20:56:16.443Z,5.47
2023-03-18T20:58:43.610Z,8.60
2023-03-18T21:01:13.748Z,7.33
2023-03-18T21:03:41.260Z,8.13
2023-03-18T21:06:13.532Z,8.10
2023-03-18T21:08:41.427Z,8.17
2023-03-18T21:11:21.884Z,8.00
2023-03-18T21:13:49.431Z,6.90
2023-03-18T21:16:17.212Z,7.20
2023-03-18T21:18:46.200Z,8.97
2023-03-18T21:21:20.136Z,7.10
2023-03-18T21:23:47.445Z,5.67
2023-03-18T21:26:14.838Z,9.70
2023-03-18T21:28:42.136Z,6.03
2023-03-18T21:31:31.162Z,6.23
2023-03-18T21:33:58.553Z,9.63
2023-03-18T21:36:27.371Z,8.03
2023-03-18T21:38:54.813Z,9.63
2023-03-18T21:41:23.706Z,5.57
2023-03-18T21:43:51.562Z,7.53
2023-03-18T21:46:20.049Z,8.43
2023-03-18T21:48:47.514Z,6.97
2023-03-18T21:51:37.991Z,6.20
2023-03-18T21:54:07.139Z,9.47
2023-03-18T21:56:34.515Z,8.37
2023-03-18T21:59:01.793Z,5.60
2023-03-18T22:01:32.155Z,7.33
2023-03-18T22:03:59.748Z,8.03
2023-03-18T22:06:27.415Z,9.30
2023-03-18T22:08:56.899Z,8.60
2023-03-18T22:11:24.200Z,11.63
2023-03-18T22:13:51.382Z,6.63
2023-03-18T22:16:19.033Z,9.23
2023-03-18T22:18:47.423Z,13.70
2023-03-18T22:21:18.115Z,9.73
2023-03-18T22:23:45.764Z,8.50
2023-03-18T22:26:14.305Z,6.20
2023-03-18T22:28:41.640Z,9.03
2023-03-18T22:31:18.178Z,7.80
2023-03-18T22:33:46.398Z,6.53
2023-03-18T22:36:14.436Z,6.07
2023-03-18T22:38:41.833Z,7.80
2023-03-18T22:41:31.235Z,8.23
2023-03-18T22:44:00.151Z,14.83
2023-03-18T22:46:28.392Z,6.63
2023-03-18T22:48:55.741Z,8.30
2023-03-18T22:51:25.320Z,11.07
2023-03-18T22:53:53.811Z,9.70
2023-03-18T22:56:22.045Z,7.53
2023-03-18T22:58:49.376Z,7.93
2023-03-18T23:01:20.969Z,6.17
2023-03-18T23:03:49.076Z,7.33
2023-03-18T23:06:18.349Z,7.37
2023-03-18T23:08:45.753Z,8.23
2023-03-18T23:11:13.633Z,4.53
2023-03-18T23:13:41.871Z,6.97
2023-03-18T23:16:12.389Z,4.93
2023-03-18T23:18:39.595Z,9.23
2023-03-18T23:21:06.914Z,6.00
2023-03-18T23:23:34.249Z,6.80
2023-03-18T23:26:02.095Z,8.43
2023-03-18T23:28:29.527Z,6.03
2023-03-18T23:30:56.667Z,7.53
2023-03-18T23:33:23.836Z,7.57
2023-03-18T23:35:51.130Z,6.33
2023-03-18T23:38:18.492Z,6.43
2023-03-18T23:40:45.769Z,5.93
2023-03-18T23:43:13.105Z,3.73
2023-03-18T23:45:40.573Z,6.37
2023-03-18T23:48:07.856Z,3.53
2023-03-18T23:50:35.114Z,4.17
2023-03-18T23:53:02.426Z,4.57
2023-03-18T23:55:37.184Z,3.60
2023-03-18T23:58:04.834Z,4.90
